sensor_id;sensor_type;location;lat;lon;timestamp;pressure;altitude;pressure_sealevel;temperature;humidity
41234;BME280;26968;42.686;23.352;2023-07-31T00:01:58;94930.09;;;21.47;69.00
41234;BME280;26968;42.686;23.352;2023-07-31T00:04:23;94911.31;;;21.51;69.76
41234;BME280;26968;42.686;23.352;2023-07-31T00:06:49;94878.81;;;21.32;69.38
41234;BME280;26968;42.686;23.352;2023-07-31T00:09:14;94935.81;;;21.46;69.39
41234;BME280;26968;42.686;23.352;2023-07-31T00:11:40;94930.53;;;21.49;68.82
41234;BME280;26968;42.686;23.352;2023-07-31T00:14:05;94914.94;;;21.43;67.92
41234;BME280;26968;42.686;23.352;2023-07-31T00:16:31;94944.69;;;21.46;67.34
41234;BME280;26968;42.686;23.352;2023-07-31T00:18:56;94943.56;;;21.47;67.91
41234;BME280;26968;42.686;23.352;2023-07-31T00:21:21;94926.88;;;21.42;68.45
41234;BME280;26968;42.686;23.352;2023-07-31T00:23:47;94919.47;;;21.39;67.79
41234;BME280;26968;42.686;23.352;2023-07-31T00:26:12;94934.34;;;21.48;68.19
41234;BME280;26968;42.686;23.352;2023-07-31T00:28:38;94922.00;;;21.63;70.29
41234;BME280;26968;42.686;23.352;2023-07-31T00:31:03;94883.16;;;21.52;67.02
41234;BME280;26968;42.686;23.352;2023-07-31T00:33:31;94898.66;;;21.71;69.12
41234;BME280;26968;42.686;23.352;2023-07-31T00:35:56;94875.06;;;21.52;69.52
41234;BME280;26968;42.686;23.352;2023-07-31T00:38:21;94897.53;;;21.40;69.07
41234;BME280;26968;42.686;23.352;2023-07-31T00:40:47;94891.47;;;21.43;69.71
41234;BME280;26968;42.686;23.352;2023-07-31T00:43:12;94891.19;;;21.33;70.83
41234;BME280;26968;42.686;23.352;2023-07-31T00:45:38;94879.72;;;21.20;70.51
41234;BME280;26968;42.686;23.352;2023-07-31T00:48:04;94888.50;;;21.33;70.72
41234;BME280;26968;42.686;23.352;2023-07-31T00:50:31;94898.38;;;21.29;70.20
41234;BME280;26968;42.686;23.352;2023-07-31T00:52:57;94893.19;;;21.36;72.05
41234;BME280;26968;42.686;23.352;2023-07-31T00:55:23;94912.94;;;21.24;71.46
41234;BME280;26968;42.686;23.352;2023-07-31T00:57:49;94878.94;;;20.92;71.85
41234;BME280;26968;42.686;23.352;2023-07-31T01:00:15;94863.13;;;20.90;72.64
41234;BME280;26968;42.686;23.352;2023-07-31T01:02:40;94894.66;;;21.33;73.50
41234;BME280;26968;42.686;23.352;2023-07-31T01:05:06;94875.34;;;21.31;74.23
41234;BME280;26968;42.686;23.352;2023-07-31T01:07:45;94897.22;;;21.14;71.87
41234;BME280;26968;42.686;23.352;2023-07-31T01:10:17;94888.44;;;21.01;72.43
41234;BME280;26968;42.686;23.352;2023-07-31T01:12:48;94843.97;;;20.79;72.96
41234;BME280;26968;42.686;23.352;2023-07-31T01:15:13;94874.34;;;20.92;72.53
41234;BME280;26968;42.686;23.352;2023-07-31T01:17:41;94886.16;;;20.88;72.60
41234;BME280;26968;42.686;23.352;2023-07-31T01:20:12;94860.25;;;20.99;72.88
41234;BME280;26968;42.686;23.352;2023-07-31T01:28:05;94844.97;;;21.03;72.79
41234;BME280;26968;42.686;23.352;2023-07-31T01:30:35;94874.06;;;20.82;73.60
41234;BME280;26968;42.686;23.352;2023-07-31T01:33:02;94857.41;;;20.64;74.33
41234;BME280;26968;42.686;23.352;2023-07-31T01:35:39;94860.19;;;20.67;74.86
41234;BME280;26968;42.686;23.352;2023-07-31T01:38:05;94843.66;;;20.53;74.59
41234;BME280;26968;42.686;23.352;2023-07-31T01:40:30;94861.44;;;20.30;75.36
41234;BME280;26968;42.686;23.352;2023-07-31T01:42:56;94849.81;;;20.26;75.85
41234;BME280;26968;42.686;23.352;2023-07-31T01:45:21;94868.50;;;20.47;76.99
41234;BME280;26968;42.686;23.352;2023-07-31T01:47:47;94866.50;;;20.44;75.82
41234;BME280;26968;42.686;23.352;2023-07-31T01:50:12;94830.38;;;20.32;75.42
41234;BME280;26968;42.686;23.352;2023-07-31T01:52:38;94857.28;;;20.45;75.83
41234;BME280;26968;42.686;23.352;2023-07-31T01:55:04;94857.19;;;20.41;76.54
41234;BME280;26968;42.686;23.352;2023-07-31T01:57:29;94882.72;;;20.59;76.40
41234;BME280;26968;42.686;23.352;2023-07-31T01:59:54;94866.09;;;20.57;76.50
41234;BME280;26968;42.686;23.352;2023-07-31T02:02:20;94863.34;;;20.69;75.88
41234;BME280;26968;42.686;23.352;2023-07-31T02:04:48;94846.50;;;20.45;75.71
41234;BME280;26968;42.686;23.352;2023-07-31T02:07:13;94886.00;;;20.68;76.11
41234;BME280;26968;42.686;23.352;2023-07-31T02:09:39;94887.59;;;20.69;76.30
41234;BME280;26968;42.686;23.352;2023-07-31T02:12:04;94873.59;;;20.64;76.29
41234;BME280;26968;42.686;23.352;2023-07-31T02:14:30;94848.63;;;20.51;75.98
41234;BME280;26968;42.686;23.352;2023-07-31T02:16:55;94877.28;;;20.44;76.89
41234;BME280;26968;42.686;23.352;2023-07-31T02:19:21;94881.63;;;20.48;76.83
41234;BME280;26968;42.686;23.352;2023-07-31T02:21:46;94873.06;;;20.58;76.48
41234;BME280;26968;42.686;23.352;2023-07-31T02:24:12;94898.69;;;20.68;76.85
41234;BME280;26968;42.686;23.352;2023-07-31T02:26:37;94873.41;;;20.57;76.76
41234;BME280;26968;42.686;23.352;2023-07-31T02:29:03;94878.19;;;20.63;75.86
41234;BME280;26968;42.686;23.352;2023-07-31T02:31:28;94853.41;;;20.58;76.40
41234;BME280;26968;42.686;23.352;2023-07-31T02:33:54;94883.63;;;20.79;76.40
41234;BME280;26968;42.686;23.352;2023-07-31T02:36:19;94884.16;;;21.00;75.82
41234;BME280;26968;42.686;23.352;2023-07-31T02:38:44;94877.72;;;20.89;75.83
41234;BME280;26968;42.686;23.352;2023-07-31T02:41:10;94894.28;;;21.03;75.30
41234;BME280;26968;42.686;23.352;2023-07-31T02:43:35;94879.47;;;20.82;74.82
41234;BME280;26968;42.686;23.352;2023-07-31T02:46:01;94884.28;;;21.04;75.33
41234;BME280;26968;42.686;23.352;2023-07-31T02:48:26;94893.75;;;20.98;76.08
41234;BME280;26968;42.686;23.352;2023-07-31T02:50:52;94879.38;;;20.94;75.25
41234;BME280;26968;42.686;23.352;2023-07-31T02:53:17;94871.78;;;20.84;75.48
41234;BME280;26968;42.686;23.352;2023-07-31T02:55:43;94893.72;;;20.82;75.40
41234;BME280;26968;42.686;23.352;2023-07-31T02:58:08;94912.94;;;20.80;75.76
41234;BME280;26968;42.686;23.352;2023-07-31T03:00:33;94880.84;;;20.48;76.03
41234;BME280;26968;42.686;23.352;2023-07-31T03:02:59;94911.69;;;20.78;76.54
41234;BME280;26968;42.686;23.352;2023-07-31T03:05:24;94896.13;;;20.71;76.22
41234;BME280;26968;42.686;23.352;2023-07-31T03:07:50;94897.69;;;20.72;75.68
41234;BME280;26968;42.686;23.352;2023-07-31T03:10:15;94911.63;;;20.74;75.80
41234;BME280;26968;42.686;23.352;2023-07-31T03:12:41;94900.63;;;20.67;76.14
41234;BME280;26968;42.686;23.352;2023-07-31T03:15:06;94889.66;;;20.60;76.15
41234;BME280;26968;42.686;23.352;2023-07-31T03:17:32;94895.81;;;20.61;76.28
41234;BME280;26968;42.686;23.352;2023-07-31T03:19:58;94907.44;;;20.77;76.00
41234;BME280;26968;42.686;23.352;2023-07-31T03:22:23;94916.25;;;20.90;75.96
41234;BME280;26968;42.686;23.352;2023-07-31T03:24:49;94913.53;;;20.74;75.56
41234;BME280;26968;42.686;23.352;2023-07-31T03:27:14;94909.72;;;20.91;75.54
41234;BME280;26968;42.686;23.352;2023-07-31T03:29:39;94907.63;;;20.84;75.25
41234;BME280;26968;42.686;23.352;2023-07-31T03:32:05;94900.88;;;20.90;75.54
41234;BME280;26968;42.686;23.352;2023-07-31T03:34:31;94937.03;;;21.17;74.63
41234;BME280;26968;42.686;23.352;2023-07-31T03:36:57;94898.69;;;20.96;74.50
41234;BME280;26968;42.686;23.352;2023-07-31T03:39:23;94909.00;;;21.22;74.42
41234;BME280;26968;42.686;23.352;2023-07-31T03:41:48;94934.94;;;21.26;74.19
41234;BME280;26968;42.686;23.352;2023-07-31T03:44:14;94911.63;;;21.18;74.14
41234;BME280;26968;42.686;23.352;2023-07-31T03:46:39;94922.19;;;21.11;74.11
41234;BME280;26968;42.686;23.352;2023-07-31T03:49:05;94912.44;;;21.06;74.76
41234;BME280;26968;42.686;23.352;2023-07-31T03:51:30;94915.91;;;21.07;73.87
41234;BME280;26968;42.686;23.352;2023-07-31T03:53:56;94925.13;;;20.90;73.90
41234;BME280;26968;42.686;23.352;2023-07-31T03:56:21;94930.78;;;21.01;73.94
41234;BME280;26968;42.686;23.352;2023-07-31T03:58:47;94938.69;;;20.94;74.35
41234;BME280;26968;42.686;23.352;2023-07-31T04:01:13;94925.75;;;20.71;74.58
41234;BME280;26968;42.686;23.352;2023-07-31T04:03:38;94935.94;;;20.78;74.86
41234;BME280;26968;42.686;23.352;2023-07-31T04:06:03;94942.91;;;20.79;74.76
41234;BME280;26968;42.686;23.352;2023-07-31T04:08:29;94944.47;;;20.80;74.52
41234;BME280;26968;42.686;23.352;2023-07-31T04:10:54;94927.53;;;20.79;74.59
41234;BME280;26968;42.686;23.352;2023-07-31T04:13:22;94948.00;;;20.96;74.25
41234;BME280;26968;42.686;23.352;2023-07-31T04:15:49;94952.94;;;20.94;74.25
41234;BME280;26968;42.686;23.352;2023-07-31T04:18:16;94960.34;;;20.97;74.06
41234;BME280;26968;42.686;23.352;2023-07-31T04:20:41;94917.72;;;20.87;74.06
41234;BME280;26968;42.686;23.352;2023-07-31T04:23:06;94947.25;;;21.11;73.64
41234;BME280;26968;42.686;23.352;2023-07-31T04:25:32;94938.97;;;21.04;73.30
41234;BME280;26968;42.686;23.352;2023-07-31T04:28:00;94927.44;;;20.92;73.26
41234;BME280;26968;42.686;23.352;2023-07-31T04:30:25;94930.94;;;20.92;73.55
41234;BME280;26968;42.686;23.352;2023-07-31T04:32:50;94967.34;;;21.14;73.30
41234;BME280;26968;42.686;23.352;2023-07-31T04:35:16;94968.44;;;21.25;72.95
41234;BME280;26968;42.686;23.352;2023-07-31T04:37:41;94955.91;;;21.17;72.25
41234;BME280;26968;42.686;23.352;2023-07-31T04:40:07;94963.66;;;21.18;72.61
41234;BME280;26968;42.686;23.352;2023-07-31T04:42:33;94968.25;;;21.06;72.34
41234;BME280;26968;42.686;23.352;2023-07-31T04:44:59;94958.28;;;20.78;72.96
41234;BME280;26968;42.686;23.352;2023-07-31T04:47:25;94928.66;;;20.51;73.81
41234;BME280;26968;42.686;23.352;2023-07-31T04:49:50;94960.94;;;20.91;73.18
41234;BME280;26968;42.686;23.352;2023-07-31T04:52:16;94942.66;;;20.84;72.86
41234;BME280;26968;42.686;23.352;2023-07-31T04:54:41;94950.16;;;20.91;72.55
41234;BME280;26968;42.686;23.352;2023-07-31T04:57:06;94958.00;;;20.96;72.81
41234;BME280;26968;42.686;23.352;2023-07-31T04:59:32;94949.63;;;20.85;72.77
41234;BME280;26968;42.686;23.352;2023-07-31T05:01:57;94957.00;;;21.16;71.96
41234;BME280;26968;42.686;23.352;2023-07-31T05:04:23;94949.66;;;21.01;71.71
41234;BME280;26968;42.686;23.352;2023-07-31T05:06:48;94933.63;;;20.92;72.28
41234;BME280;26968;42.686;23.352;2023-07-31T05:09:14;94946.63;;;21.02;72.08
41234;BME280;26968;42.686;23.352;2023-07-31T05:11:39;94941.84;;;21.11;72.01
41234;BME280;26968;42.686;23.352;2023-07-31T05:14:06;94927.81;;;20.90;71.94
41234;BME280;26968;42.686;23.352;2023-07-31T05:16:31;94905.47;;;20.90;72.07
41234;BME280;26968;42.686;23.352;2023-07-31T05:18:56;94895.56;;;21.09;71.60
41234;BME280;26968;42.686;23.352;2023-07-31T05:21:22;94948.53;;;21.45;70.41
41234;BME280;26968;42.686;23.352;2023-07-31T05:23:48;94931.91;;;21.28;70.42
41234;BME280;26968;42.686;23.352;2023-07-31T05:26:14;94938.84;;;21.44;69.94
41234;BME280;26968;42.686;23.352;2023-07-31T05:28:39;94938.59;;;21.18;69.80
41234;BME280;26968;42.686;23.352;2023-07-31T05:31:05;94876.25;;;20.92;70.68
41234;BME280;26968;42.686;23.352;2023-07-31T05:33:32;94900.88;;;21.06;70.16
41234;BME280;26968;42.686;23.352;2023-07-31T05:35:57;94873.88;;;20.74;70.27
41234;BME280;26968;42.686;23.352;2023-07-31T05:38:22;94912.81;;;21.05;70.49
41234;BME280;26968;42.686;23.352;2023-07-31T05:40:48;94934.56;;;21.12;70.13
41234;BME280;26968;42.686;23.352;2023-07-31T05:43:14;94941.91;;;20.99;70.26
41234;BME280;26968;42.686;23.352;2023-07-31T05:45:41;94950.25;;;21.22;70.65
41234;BME280;26968;42.686;23.352;2023-07-31T05:48:07;94923.97;;;21.19;69.64
41234;BME280;26968;42.686;23.352;2023-07-31T05:50:32;94958.78;;;21.24;68.96
41234;BME280;26968;42.686;23.352;2023-07-31T05:52:58;94964.84;;;21.21;68.19
41234;BME280;26968;42.686;23.352;2023-07-31T05:55:24;94954.94;;;21.25;68.20
41234;BME280;26968;42.686;23.352;2023-07-31T05:57:52;94949.91;;;21.39;68.11
41234;BME280;26968;42.686;23.352;2023-07-31T06:00:17;94925.72;;;21.27;66.88
41234;BME280;26968;42.686;23.352;2023-07-31T06:02:43;94942.78;;;21.31;66.89
41234;BME280;26968;42.686;23.352;2023-07-31T06:05:08;94960.03;;;21.42;66.38
41234;BME280;26968;42.686;23.352;2023-07-31T06:07:34;94974.72;;;21.45;66.06
41234;BME280;26968;42.686;23.352;2023-07-31T06:09:59;94965.59;;;21.49;65.78
41234;BME280;26968;42.686;23.352;2023-07-31T06:12:30;94968.72;;;21.51;65.66
41234;BME280;26968;42.686;23.352;2023-07-31T06:14:56;94950.97;;;21.35;65.61
41234;BME280;26968;42.686;23.352;2023-07-31T06:17:21;94954.53;;;21.39;65.22
41234;BME280;26968;42.686;23.352;2023-07-31T06:19:47;94914.00;;;21.35;65.19
41234;BME280;26968;42.686;23.352;2023-07-31T06:22:12;94953.69;;;21.66;64.73
41234;BME280;26968;42.686;23.352;2023-07-31T06:24:38;94945.13;;;21.80;63.87
41234;BME280;26968;42.686;23.352;2023-07-31T06:27:04;94956.91;;;22.03;62.79
41234;BME280;26968;42.686;23.352;2023-07-31T06:29:30;94929.81;;;21.68;62.94
41234;BME280;26968;42.686;23.352;2023-07-31T06:31:55;94955.59;;;21.81;63.01
41234;BME280;26968;42.686;23.352;2023-07-31T06:34:21;94967.59;;;21.84;62.80
41234;BME280;26968;42.686;23.352;2023-07-31T06:36:46;94960.53;;;21.79;62.73
41234;BME280;26968;42.686;23.352;2023-07-31T06:39:12;94945.13;;;21.95;62.94
41234;BME280;26968;42.686;23.352;2023-07-31T06:41:38;94970.88;;;21.93;62.34
41234;BME280;26968;42.686;23.352;2023-07-31T06:44:04;94976.97;;;21.90;62.80
41234;BME280;26968;42.686;23.352;2023-07-31T06:46:29;94939.13;;;21.55;63.04
41234;BME280;26968;42.686;23.352;2023-07-31T06:48:54;94960.44;;;21.60;63.27
41234;BME280;26968;42.686;23.352;2023-07-31T06:51:20;94958.19;;;21.62;63.26
41234;BME280;26968;42.686;23.352;2023-07-31T06:53:46;94936.88;;;21.57;62.98
41234;BME280;26968;42.686;23.352;2023-07-31T06:56:11;94964.03;;;21.80;62.63
41234;BME280;26968;42.686;23.352;2023-07-31T06:58:37;94988.16;;;21.88;62.66
41234;BME280;26968;42.686;23.352;2023-07-31T07:01:02;94982.75;;;21.88;62.32
41234;BME280;26968;42.686;23.352;2023-07-31T07:03:28;94949.41;;;21.65;62.13
41234;BME280;26968;42.686;23.352;2023-07-31T07:05:54;94948.53;;;21.61;62.13
41234;BME280;26968;42.686;23.352;2023-07-31T07:08:19;94942.97;;;21.70;61.94
41234;BME280;26968;42.686;23.352;2023-07-31T07:10:45;94972.97;;;21.84;61.73
41234;BME280;26968;42.686;23.352;2023-07-31T07:13:11;94953.25;;;21.64;61.73
41234;BME280;26968;42.686;23.352;2023-07-31T07:15:38;94952.44;;;21.48;61.96
41234;BME280;26968;42.686;23.352;2023-07-31T07:18:03;94965.50;;;21.62;61.44
41234;BME280;26968;42.686;23.352;2023-07-31T07:20:29;94977.94;;;21.82;61.38
41234;BME280;26968;42.686;23.352;2023-07-31T07:22:54;94932.34;;;21.45;60.97
41234;BME280;26968;42.686;23.352;2023-07-31T07:25:20;94971.97;;;21.73;61.38
41234;BME280;26968;42.686;23.352;2023-07-31T07:27:45;94964.44;;;21.82;60.67
41234;BME280;26968;42.686;23.352;2023-07-31T07:30:11;94934.97;;;21.58;61.07
41234;BME280;26968;42.686;23.352;2023-07-31T07:32:36;94944.44;;;21.67;61.13
41234;BME280;26968;42.686;23.352;2023-07-31T07:35:01;94956.97;;;21.75;61.21
41234;BME280;26968;42.686;23.352;2023-07-31T07:37:27;94960.53;;;21.79;61.41
41234;BME280;26968;42.686;23.352;2023-07-31T07:39:52;94944.34;;;21.79;60.96
41234;BME280;26968;42.686;23.352;2023-07-31T07:42:18;94950.41;;;21.92;60.79
41234;BME280;26968;42.686;23.352;2023-07-31T07:44:43;94958.00;;;22.18;60.46
41234;BME280;26968;42.686;23.352;2023-07-31T07:47:09;94962.44;;;22.26;60.41
41234;BME280;26968;42.686;23.352;2023-07-31T07:49:35;94976.34;;;22.28;59.57
41234;BME280;26968;42.686;23.352;2023-07-31T07:52:00;94961.84;;;22.36;59.62
41234;BME280;26968;42.686;23.352;2023-07-31T07:54:26;94955.31;;;22.37;59.36
41234;BME280;26968;42.686;23.352;2023-07-31T07:56:52;94979.69;;;22.56;57.98
41234;BME280;26968;42.686;23.352;2023-07-31T07:59:17;94925.53;;;22.33;57.44
41234;BME280;26968;42.686;23.352;2023-07-31T08:01:43;94935.25;;;22.19;56.87
41234;BME280;26968;42.686;23.352;2023-07-31T08:04:08;94902.84;;;22.19;57.09
41234;BME280;26968;42.686;23.352;2023-07-31T08:06:34;94986.69;;;22.77;57.30
41234;BME280;26968;42.686;23.352;2023-07-31T08:08:59;94974.66;;;22.74;56.83
41234;BME280;26968;42.686;23.352;2023-07-31T08:11:30;94989.19;;;22.85;56.94
41234;BME280;26968;42.686;23.352;2023-07-31T08:13:55;94988.09;;;22.90;57.03
41234;BME280;26968;42.686;23.352;2023-07-31T08:16:21;94932.75;;;22.64;56.12
41234;BME280;26968;42.686;23.352;2023-07-31T08:18:46;94987.75;;;23.11;55.78
41234;BME280;26968;42.686;23.352;2023-07-31T08:21:12;94984.69;;;23.12;55.34
41234;BME280;26968;42.686;23.352;2023-07-31T08:23:37;94979.13;;;23.24;54.19
41234;BME280;26968;42.686;23.352;2023-07-31T08:26:03;94973.72;;;23.24;54.36
41234;BME280;26968;42.686;23.352;2023-07-31T08:28:28;94964.47;;;23.25;53.99
41234;BME280;26968;42.686;23.352;2023-07-31T08:30:53;94953.13;;;23.20;54.15
41234;BME280;26968;42.686;23.352;2023-07-31T08:33:19;94950.16;;;23.25;53.96
41234;BME280;26968;42.686;23.352;2023-07-31T08:35:44;94959.59;;;23.34;53.31
41234;BME280;26968;42.686;23.352;2023-07-31T08:38:11;94981.66;;;23.56;53.21
41234;BME280;26968;42.686;23.352;2023-07-31T08:40:37;94968.25;;;23.43;52.67
41234;BME280;26968;42.686;23.352;2023-07-31T08:43:03;94968.00;;;23.49;52.46
41234;BME280;26968;42.686;23.352;2023-07-31T08:45:30;94942.56;;;23.53;52.51
41234;BME280;26968;42.686;23.352;2023-07-31T08:47:56;94964.91;;;23.73;51.68
41234;BME280;26968;42.686;23.352;2023-07-31T08:50:22;94939.38;;;23.70;50.83
41234;BME280;26968;42.686;23.352;2023-07-31T08:52:50;94956.25;;;23.87;51.05
41234;BME280;26968;42.686;23.352;2023-07-31T08:55:16;94961.28;;;23.88;50.73
41234;BME280;26968;42.686;23.352;2023-07-31T08:57:42;94961.69;;;23.87;50.55
41234;BME280;26968;42.686;23.352;2023-07-31T09:00:10;94955.94;;;23.92;51.01
41234;BME280;26968;42.686;23.352;2023-07-31T09:02:41;94961.81;;;23.97;50.21
41234;BME280;26968;42.686;23.352;2023-07-31T09:05:10;94951.63;;;23.87;50.20
41234;BME280;26968;42.686;23.352;2023-07-31T09:07:36;94930.25;;;23.82;49.98
41234;BME280;26968;42.686;23.352;2023-07-31T09:10:03;94923.19;;;24.00;50.31
41234;BME280;26968;42.686;23.352;2023-07-31T09:12:29;94949.53;;;24.03;50.00
41234;BME280;26968;42.686;23.352;2023-07-31T09:14:55;94951.03;;;24.23;49.84
41234;BME280;26968;42.686;23.352;2023-07-31T09:17:31;94951.84;;;24.28;49.30
41234;BME280;26968;42.686;23.352;2023-07-31T09:19:58;94923.75;;;24.13;49.68
41234;BME280;26968;42.686;23.352;2023-07-31T09:22:37;94942.00;;;24.16;49.68
41234;BME280;26968;42.686;23.352;2023-07-31T09:25:29;94943.81;;;24.35;49.79
41234;BME280;26968;42.686;23.352;2023-07-31T09:28:06;94932.34;;;24.45;50.03
41234;BME280;26968;42.686;23.352;2023-07-31T09:33:09;94933.56;;;24.47;49.37
41234;BME280;26968;42.686;23.352;2023-07-31T09:35:35;94923.88;;;24.46;49.32
41234;BME280;26968;42.686;23.352;2023-07-31T09:38:05;94923.94;;;24.53;48.88
41234;BME280;26968;42.686;23.352;2023-07-31T09:40:35;94927.19;;;24.66;48.83
41234;BME280;26968;42.686;23.352;2023-07-31T09:43:05;94912.56;;;24.41;49.31
41234;BME280;26968;42.686;23.352;2023-07-31T09:45:34;94917.09;;;24.63;49.31
41234;BME280;26968;42.686;23.352;2023-07-31T09:48:00;94933.22;;;24.82;48.93
41234;BME280;26968;42.686;23.352;2023-07-31T09:50:25;94912.28;;;24.83;48.57
41234;BME280;26968;42.686;23.352;2023-07-31T09:52:51;94917.94;;;25.01;47.91
41234;BME280;26968;42.686;23.352;2023-07-31T09:55:18;94918.94;;;25.22;47.04
41234;BME280;26968;42.686;23.352;2023-07-31T09:57:47;94921.19;;;25.54;46.01
41234;BME280;26968;42.686;23.352;2023-07-31T10:00:15;94929.91;;;25.73;44.99
41234;BME280;26968;42.686;23.352;2023-07-31T10:02:45;94923.69;;;25.69;45.26
41234;BME280;26968;42.686;23.352;2023-07-31T10:05:15;94902.78;;;25.81;44.98
41234;BME280;26968;42.686;23.352;2023-07-31T10:07:43;94936.19;;;25.81;45.19
41234;BME280;26968;42.686;23.352;2023-07-31T10:10:11;94915.91;;;25.68;45.21
41234;BME280;26968;42.686;23.352;2023-07-31T10:12:37;94900.72;;;25.63;45.07
41234;BME280;26968;42.686;23.352;2023-07-31T10:15:03;94919.09;;;26.32;43.95
41234;BME280;26968;42.686;23.352;2023-07-31T10:17:30;94905.88;;;26.34;43.10
41234;BME280;26968;42.686;23.352;2023-07-31T10:19:58;94923.34;;;26.33;42.82
41234;BME280;26968;42.686;23.352;2023-07-31T10:22:26;94877.94;;;26.37;42.45
41234;BME280;26968;42.686;23.352;2023-07-31T10:24:52;94916.00;;;27.31;40.85
41234;BME280;26968;42.686;23.352;2023-07-31T10:27:19;94889.56;;;27.45;40.18
41234;BME280;26968;42.686;23.352;2023-07-31T10:29:45;94916.00;;;27.48;40.48
41234;BME280;26968;42.686;23.352;2023-07-31T10:32:14;94918.41;;;27.60;40.15
41234;BME280;26968;42.686;23.352;2023-07-31T10:34:41;94908.25;;;28.18;38.56
41234;BME280;26968;42.686;23.352;2023-07-31T10:37:27;94904.59;;;28.77;37.34
41234;BME280;26968;42.686;23.352;2023-07-31T10:42:36;94890.84;;;29.02;37.30
41234;BME280;26968;42.686;23.352;2023-07-31T10:45:10;94897.44;;;29.08;36.47
41234;BME280;26968;42.686;23.352;2023-07-31T10:47:42;94906.19;;;29.48;35.69
41234;BME280;26968;42.686;23.352;2023-07-31T10:50:20;94885.13;;;29.45;35.86
41234;BME280;26968;42.686;23.352;2023-07-31T10:52:48;94888.53;;;30.08;34.89
41234;BME280;26968;42.686;23.352;2023-07-31T10:55:38;94875.81;;;29.87;34.28
41234;BME280;26968;42.686;23.352;2023-07-31T10:58:12;94888.94;;;30.10;34.36
41234;BME280;26968;42.686;23.352;2023-07-31T11:00:40;94885.81;;;30.08;34.58
41234;BME280;26968;42.686;23.352;2023-07-31T11:03:08;94887.16;;;30.30;34.02
41234;BME280;26968;42.686;23.352;2023-07-31T11:08:17;94887.00;;;30.07;34.45
41234;BME280;26968;42.686;23.352;2023-07-31T11:10:44;94857.97;;;30.20;33.63
41234;BME280;26968;42.686;23.352;2023-07-31T11:13:10;94871.59;;;30.23;33.76
41234;BME280;26968;42.686;23.352;2023-07-31T11:15:36;94849.56;;;30.38;32.75
41234;BME280;26968;42.686;23.352;2023-07-31T11:18:02;94856.56;;;30.42;32.77
41234;BME280;26968;42.686;23.352;2023-07-31T11:20:32;94813.34;;;30.26;32.19
41234;BME280;26968;42.686;23.352;2023-07-31T11:23:01;94822.81;;;30.52;32.04
41234;BME280;26968;42.686;23.352;2023-07-31T11:25:31;94870.19;;;30.46;32.38
41234;BME280;26968;42.686;23.352;2023-07-31T11:28:10;94862.88;;;30.36;32.47
41234;BME280;26968;42.686;23.352;2023-07-31T11:30:39;94878.84;;;30.03;32.92
41234;BME280;26968;42.686;23.352;2023-07-31T11:33:10;94864.72;;;29.60;33.39
41234;BME280;26968;42.686;23.352;2023-07-31T11:35:41;94871.47;;;29.45;33.91
41234;BME280;26968;42.686;23.352;2023-07-31T11:38:07;94861.19;;;29.67;33.55
41234;BME280;26968;42.686;23.352;2023-07-31T11:40:43;94861.72;;;29.92;32.90
41234;BME280;26968;42.686;23.352;2023-07-31T11:43:09;94836.88;;;29.76;33.19
41234;BME280;26968;42.686;23.352;2023-07-31T11:45:37;94861.06;;;29.22;35.19
41234;BME280;26968;42.686;23.352;2023-07-31T11:48:03;94863.63;;;28.85;36.32
41234;BME280;26968;42.686;23.352;2023-07-31T11:50:33;94840.13;;;29.05;35.83
41234;BME280;26968;42.686;23.352;2023-07-31T11:53:00;94847.72;;;29.42;34.85
41234;BME280;26968;42.686;23.352;2023-07-31T11:55:29;94840.38;;;29.28;34.49
41234;BME280;26968;42.686;23.352;2023-07-31T11:57:57;94860.06;;;29.57;34.02
41234;BME280;26968;42.686;23.352;2023-07-31T12:00:24;94847.50;;;29.08;34.92
41234;BME280;26968;42.686;23.352;2023-07-31T12:02:50;94805.81;;;29.04;34.54
41234;BME280;26968;42.686;23.352;2023-07-31T12:05:16;94867.44;;;29.64;33.51
41234;BME280;26968;42.686;23.352;2023-07-31T12:07:46;94858.25;;;29.40;34.09
41234;BME280;26968;42.686;23.352;2023-07-31T12:15:43;94842.97;;;29.46;34.42
41234;BME280;26968;42.686;23.352;2023-07-31T12:18:20;94844.00;;;29.66;34.03
41234;BME280;26968;42.686;23.352;2023-07-31T12:20:53;94846.91;;;29.89;34.45
41234;BME280;26968;42.686;23.352;2023-07-31T12:23:22;94832.34;;;29.59;34.68
41234;BME280;26968;42.686;23.352;2023-07-31T12:26:15;94840.31;;;29.39;34.99
41234;BME280;26968;42.686;23.352;2023-07-31T12:28:41;94834.69;;;29.05;35.23
41234;BME280;26968;42.686;23.352;2023-07-31T12:31:09;94833.66;;;28.77;35.49
41234;BME280;26968;42.686;23.352;2023-07-31T12:33:36;94851.44;;;29.03;35.39
41234;BME280;26968;42.686;23.352;2023-07-31T12:36:07;94852.81;;;28.60;35.76
41234;BME280;26968;42.686;23.352;2023-07-31T12:38:34;94766.53;;;27.96;36.06
41234;BME280;26968;42.686;23.352;2023-07-31T12:40:59;94768.44;;;28.10;36.35
41234;BME280;26968;42.686;23.352;2023-07-31T12:43:25;94829.09;;;28.50;35.81
41234;BME280;26968;42.686;23.352;2023-07-31T12:45:50;94804.22;;;28.37;35.91
41234;BME280;26968;42.686;23.352;2023-07-31T12:48:16;94745.50;;;28.04;35.50
41234;BME280;26968;42.686;23.352;2023-07-31T12:50:41;94769.59;;;28.13;35.97
41234;BME280;26968;42.686;23.352;2023-07-31T12:53:07;94810.88;;;28.18;36.21
41234;BME280;26968;42.686;23.352;2023-07-31T12:55:33;94830.75;;;28.22;36.73
41234;BME280;26968;42.686;23.352;2023-07-31T12:58:00;94834.28;;;27.98;36.53
41234;BME280;26968;42.686;23.352;2023-07-31T13:00:26;94810.88;;;28.18;37.11
41234;BME280;26968;42.686;23.352;2023-07-31T13:02:51;94819.06;;;28.08;36.97
41234;BME280;26968;42.686;23.352;2023-07-31T13:05:17;94788.34;;;27.96;37.43
41234;BME280;26968;42.686;23.352;2023-07-31T13:07:44;94773.13;;;28.06;37.10